Terminal Aerodrome Forecast
Issued by NWS

Home | Current Version | Previous Version | Text Only | Print | Product List | Glossary On
Versions: 1 2 3 4 5 6 7 8 9 10 11 12 13 14
103
FTUS43 KPAH 221120
TAFCGI
TAF
KCGI 221120Z 2212/2312 05010G18KT P6SM VCSH OVC008
     FM221300 04011G19KT 4SM -SHRA BR OVC007
     FM221800 03014G23KT 5SM -RA BR VCSH OVC010
     FM230000 01011KT P6SM VCSH OVC015
     FM230600 01011KT P6SM BKN025
     FM231000 01010KT P6SM SCT035=

USA.gov is the U.S. government's official web portal to all federal, state and local government web resources and services.